createdAt,value
2017-05-16T00:00:07.580Z,0
2017-05-16T00:01:16.951Z,0
2017-05-16T00:02:26.167Z,0
2017-05-16T00:03:35.393Z,0
2017-05-16T00:04:44.618Z,0
2017-05-16T00:05:53.523Z,0
2017-05-16T00:07:02.477Z,0
2017-05-16T00:08:11.699Z,0
2017-05-16T00:09:21.250Z,0
2017-05-16T00:10:30.144Z,0
2017-05-16T00:11:39.040Z,0
2017-05-16T00:12:48.736Z,0
2017-05-16T00:13:57.635Z,0
2017-05-16T00:15:07.183Z,0
2017-05-16T00:16:16.097Z,0
2017-05-16T00:17:24.995Z,0
2017-05-16T00:18:33.998Z,0
2017-05-16T00:19:42.894Z,0
2017-05-16T00:20:51.791Z,0
2017-05-16T00:22:01.009Z,0
2017-05-16T00:23:09.910Z,0
2017-05-16T00:24:19.237Z,0
2017-05-16T00:25:28.460Z,0
2017-05-16T00:26:37.356Z,0
2017-05-16T00:27:46.579Z,0
2017-05-16T00:28:55.479Z,0
2017-05-16T00:30:04.848Z,0
2017-05-16T00:31:14.396Z,0
2017-05-16T00:32:23.621Z,0
2017-05-16T00:33:32.516Z,0
2017-05-16T00:34:41.416Z,0
2017-05-16T00:35:50.791Z,0
2017-05-16T00:36:59.684Z,0
2017-05-16T00:38:09.230Z,0
2017-05-16T00:39:18.780Z,0
2017-05-16T00:40:27.674Z,0
2017-05-16T00:41:36.948Z,0
2017-05-16T00:42:46.174Z,0
2017-05-16T00:43:55.079Z,0
2017-05-16T00:45:03.972Z,0
2017-05-16T00:46:13.519Z,0
2017-05-16T00:47:22.713Z,0
2017-05-16T00:48:31.606Z,0
2017-05-16T00:49:40.558Z,0
2017-05-16T00:50:49.455Z,0
2017-05-16T00:51:58.676Z,0
2017-05-16T00:53:07.625Z,0
2017-05-16T00:54:16.843Z,0
2017-05-16T00:55:25.738Z,0
2017-05-16T00:56:35.617Z,0
2017-05-16T00:57:45.174Z,0
2017-05-16T00:58:54.225Z,0
2017-05-16T01:00:03.447Z,0
2017-05-16T01:01:12.351Z,0
2017-05-16T01:02:21.897Z,0
2017-05-16T01:03:31.775Z,0
2017-05-16T01:04:41.572Z,0
2017-05-16T01:05:50.800Z,0
2017-05-16T01:07:00.346Z,0
2017-05-16T01:08:09.241Z,0
2017-05-16T01:09:18.137Z,0
2017-05-16T01:10:27.082Z,0
2017-05-16T01:11:36.628Z,0
2017-05-16T01:12:45.857Z,0
2017-05-16T01:13:55.079Z,0
2017-05-16T01:15:04.621Z,0
2017-05-16T01:16:13.513Z,0
2017-05-16T01:17:22.735Z,0
2017-05-16T01:18:31.960Z,0
2017-05-16T01:19:41.521Z,0
2017-05-16T01:20:50.420Z,0
2017-05-16T01:21:59.470Z,0
2017-05-16T01:23:08.692Z,0
2017-05-16T01:24:17.914Z,0
2017-05-16T01:25:26.806Z,0
2017-05-16T01:26:36.026Z,0
2017-05-16T01:27:44.987Z,0
2017-05-16T01:28:54.866Z,0
2017-05-16T01:30:04.413Z,0
2017-05-16T01:31:13.310Z,0
2017-05-16T01:32:22.208Z,0
2017-05-16T01:33:31.249Z,0
2017-05-16T01:34:40.479Z,0
2017-05-16T01:35:49.700Z,0
2017-05-16T01:36:58.924Z,0
2017-05-16T01:38:08.479Z,0
2017-05-16T01:39:17.997Z,0
2017-05-16T01:40:27.220Z,0
2017-05-16T01:41:36.439Z,0
2017-05-16T01:42:45.987Z,0
2017-05-16T01:43:55.540Z,0
2017-05-16T01:45:05.414Z,0
2017-05-16T01:46:14.312Z,0
2017-05-16T01:47:23.208Z,0
2017-05-16T01:48:32.108Z,0
2017-05-16T01:49:41.006Z,0
2017-05-16T01:50:50.660Z,0
2017-05-16T01:51:59.556Z,0
2017-05-16T01:53:08.457Z,0
2017-05-16T01:54:17.677Z,0
2017-05-16T01:55:26.575Z,0
2017-05-16T01:56:35.723Z,0
2017-05-16T01:57:45.270Z,0
2017-05-16T01:58:54.825Z,0
2017-05-16T02:00:04.697Z,0
2017-05-16T02:01:13.919Z,0
2017-05-16T02:02:23.864Z,0
2017-05-16T02:03:33.089Z,0
2017-05-16T02:04:42.637Z,0
2017-05-16T02:05:51.866Z,0
2017-05-16T02:07:01.413Z,0
2017-05-16T02:08:10.785Z,0
2017-05-16T02:09:20.007Z,0
2017-05-16T02:10:29.235Z,0
2017-05-16T02:11:38.455Z,0
2017-05-16T02:12:48.024Z,0
2017-05-16T02:13:57.298Z,0
2017-05-16T02:15:06.196Z,0
2017-05-16T02:16:15.418Z,0
2017-05-16T02:17:24.637Z,0
2017-05-16T02:18:33.532Z,0
2017-05-16T02:19:42.427Z,0
2017-05-16T02:20:51.644Z,0
2017-05-16T02:22:00.864Z,0
2017-05-16T02:23:09.761Z,0
2017-05-16T02:24:19.325Z,0
2017-05-16T02:25:28.601Z,0
2017-05-16T02:26:37.496Z,0
2017-05-16T02:27:46.722Z,0
2017-05-16T02:28:55.949Z,0
2017-05-16T02:30:05.172Z,0
2017-05-16T02:31:14.120Z,0
2017-05-16T02:32:23.027Z,0
2017-05-16T02:33:32.576Z,0
2017-05-16T02:34:41.796Z,0
2017-05-16T02:35:51.018Z,0
2017-05-16T02:37:00.667Z,0
2017-05-16T02:38:09.559Z,0
2017-05-16T02:39:19.102Z,0
2017-05-16T02:40:28.371Z,0
2017-05-16T02:41:38.256Z,0
2017-05-16T02:42:48.531Z,0
2017-05-16T02:43:57.757Z,0
2017-05-16T02:45:06.657Z,0
2017-05-16T02:46:16.522Z,0
2017-05-16T02:47:25.747Z,0
2017-05-16T02:48:35.020Z,0
2017-05-16T02:49:44.598Z,0
2017-05-16T02:50:53.495Z,0
2017-05-16T02:52:02.723Z,0
2017-05-16T02:53:11.626Z,0
2017-05-16T02:54:21.325Z,0
2017-05-16T02:55:30.871Z,0
2017-05-16T02:56:39.766Z,0
2017-05-16T02:57:49.338Z,0
2017-05-16T02:58:58.608Z,0
2017-05-16T03:00:07.664Z,0
2017-05-16T03:01:16.570Z,0
2017-05-16T03:02:25.463Z,0
2017-05-16T03:03:34.685Z,0
2017-05-16T03:04:44.234Z,0
2017-05-16T03:05:53.325Z,0
2017-05-16T03:07:02.544Z,0
2017-05-16T03:08:11.441Z,0
2017-05-16T03:09:20.669Z,0
2017-05-16T03:10:29.893Z,0
2017-05-16T03:11:38.943Z,0
2017-05-16T03:12:47.844Z,0
2017-05-16T03:13:56.744Z,0
2017-05-16T03:15:06.294Z,0
2017-05-16T03:16:15.194Z,0
2017-05-16T03:17:24.893Z,0
2017-05-16T03:18:34.113Z,0
2017-05-16T03:19:43.657Z,0
2017-05-16T03:20:52.880Z,0
2017-05-16T03:22:01.773Z,0
2017-05-16T03:23:11.473Z,0
2017-05-16T03:24:20.696Z,0
2017-05-16T03:25:30.258Z,0
2017-05-16T03:26:39.807Z,0
2017-05-16T03:27:48.706Z,0
2017-05-16T03:28:58.402Z,0
2017-05-16T03:30:07.300Z,0
2017-05-16T03:31:16.519Z,0
2017-05-16T03:32:25.410Z,0
2017-05-16T03:33:34.677Z,0
2017-05-16T03:34:43.951Z,0
2017-05-16T03:35:53.172Z,0
2017-05-16T03:37:02.066Z,0
2017-05-16T03:38:10.959Z,0
2017-05-16T03:39:19.858Z,0
2017-05-16T03:40:29.811Z,0
2017-05-16T03:41:38.708Z,0
2017-05-16T03:42:47.937Z,0
2017-05-16T03:43:57.158Z,0
2017-05-16T03:45:06.705Z,5
2017-05-16T03:46:15.933Z,5
2017-05-16T03:47:25.480Z,5
2017-05-16T03:48:34.700Z,5
2017-05-16T03:49:43.921Z,5
2017-05-16T03:50:52.815Z,5
2017-05-16T03:52:02.515Z,5
2017-05-16T03:53:11.739Z,5
2017-05-16T03:54:20.962Z,5
2017-05-16T03:55:29.863Z,5
2017-05-16T03:56:39.734Z,5
2017-05-16T03:57:48.829Z,10
2017-05-16T03:58:58.057Z,10
2017-05-16T04:00:07.280Z,10
2017-05-16T04:01:16.172Z,10
2017-05-16T04:02:25.728Z,10
2017-05-16T04:03:35.110Z,10
2017-05-16T04:04:44.658Z,10
2017-05-16T04:05:53.553Z,15
2017-05-16T04:07:03.097Z,15
2017-05-16T04:08:12.697Z,15
2017-05-16T04:09:22.070Z,15
2017-05-16T04:10:31.619Z,15
2017-05-16T04:11:40.836Z,20
2017-05-16T04:12:50.386Z,20
2017-05-16T04:14:00.261Z,20
2017-05-16T04:15:09.634Z,20
2017-05-16T04:16:18.865Z,20
2017-05-16T04:17:28.088Z,20
2017-05-16T04:18:37.630Z,20
2017-05-16T04:19:46.901Z,20
2017-05-16T04:20:56.422Z,20
2017-05-16T04:22:06.294Z,20
2017-05-16T04:23:15.518Z,20
2017-05-16T04:24:25.394Z,25
2017-05-16T04:25:34.620Z,25
2017-05-16T04:26:43.940Z,25
2017-05-16T04:27:53.819Z,25
2017-05-16T04:29:03.368Z,30
2017-05-16T04:30:12.637Z,30
2017-05-16T04:31:22.183Z,30
2017-05-16T04:32:31.276Z,25
2017-05-16T04:33:40.880Z,25
2017-05-16T04:34:50.428Z,30
2017-05-16T04:35:59.653Z,30
2017-05-16T04:37:08.555Z,30
2017-05-16T04:38:18.300Z,30
2017-05-16T04:39:28.174Z,35
2017-05-16T04:40:37.397Z,40
2017-05-16T04:41:46.624Z,45
2017-05-16T04:42:56.176Z,45
2017-05-16T04:44:05.731Z,50
2017-05-16T04:45:14.626Z,55
2017-05-16T04:46:23.853Z,60
2017-05-16T04:47:33.075Z,60
2017-05-16T04:48:43.275Z,65
2017-05-16T04:49:52.645Z,70
2017-05-16T04:51:02.191Z,70
2017-05-16T04:52:11.410Z,70
2017-05-16T04:53:20.632Z,75
2017-05-16T04:54:30.217Z,75
2017-05-16T04:55:39.688Z,75
2017-05-16T04:56:48.579Z,75
2017-05-16T04:57:57.806Z,85
2017-05-16T04:59:07.360Z,95
2017-05-16T05:00:16.255Z,105
2017-05-16T05:01:25.150Z,105
2017-05-16T05:02:34.058Z,100
2017-05-16T05:03:43.635Z,95
2017-05-16T05:04:52.858Z,95
2017-05-16T05:06:02.401Z,90
2017-05-16T05:07:11.628Z,95
2017-05-16T05:08:20.848Z,95
2017-05-16T05:09:30.395Z,95
2017-05-16T05:10:39.630Z,95
2017-05-16T05:11:48.858Z,95
2017-05-16T05:12:58.413Z,90
2017-05-16T05:14:07.317Z,80
2017-05-16T05:15:16.540Z,80
2017-05-16T05:16:25.439Z,75
2017-05-16T05:17:34.994Z,70
2017-05-16T05:18:43.906Z,70
2017-05-16T05:19:52.803Z,65
2017-05-16T05:21:02.027Z,65
2017-05-16T05:22:11.585Z,65
2017-05-16T05:23:21.135Z,65
2017-05-16T05:24:30.036Z,65
2017-05-16T05:25:39.263Z,65
2017-05-16T05:26:48.634Z,70
2017-05-16T05:27:57.862Z,70
2017-05-16T05:29:07.408Z,75
2017-05-16T05:30:16.625Z,75
2017-05-16T05:31:25.520Z,80
2017-05-16T05:32:34.567Z,80
2017-05-16T05:33:44.122Z,85
2017-05-16T05:34:53.019Z,85
2017-05-16T05:36:01.915Z,85
2017-05-16T05:37:10.811Z,90
2017-05-16T05:38:19.866Z,90
2017-05-16T05:39:29.136Z,95
2017-05-16T05:40:38.357Z,105
2017-05-16T05:41:47.826Z,115
2017-05-16T05:42:57.051Z,120
2017-05-16T05:44:06.584Z,125
2017-05-16T05:45:15.864Z,130
2017-05-16T05:46:25.087Z,130
2017-05-16T05:47:33.982Z,130
2017-05-16T05:48:43.529Z,125
2017-05-16T05:49:52.475Z,115
2017-05-16T05:51:01.695Z,110
2017-05-16T05:52:10.920Z,105
2017-05-16T05:53:20.466Z,100
2017-05-16T05:54:30.019Z,90
2017-05-16T05:55:39.291Z,85
2017-05-16T05:56:48.563Z,85
2017-05-16T05:57:57.461Z,85
2017-05-16T05:59:07.012Z,90
2017-05-16T06:00:16.235Z,90
2017-05-16T06:01:25.664Z,90
2017-05-16T06:02:34.883Z,85
2017-05-16T06:03:44.502Z,80
2017-05-16T06:04:54.054Z,75
2017-05-16T06:06:03.599Z,70
2017-05-16T06:07:13.029Z,65
2017-05-16T06:08:22.252Z,60
2017-05-16T06:09:31.476Z,60
2017-05-16T06:10:40.371Z,60
2017-05-16T06:11:49.272Z,60
2017-05-16T06:12:58.280Z,60
2017-05-16T06:14:07.191Z,60
2017-05-16T06:15:16.084Z,65
2017-05-16T06:16:24.978Z,65
2017-05-16T06:17:33.878Z,70
2017-05-16T06:18:42.983Z,75
2017-05-16T06:19:52.860Z,85
2017-05-16T06:21:02.081Z,90
2017-05-16T06:22:11.304Z,95
2017-05-16T06:23:20.927Z,110
2017-05-16T06:24:30.196Z,115
2017-05-16T06:25:39.418Z,110
2017-05-16T06:26:48.320Z,105
2017-05-16T06:27:58.242Z,100
2017-05-16T06:29:07.801Z,85
2017-05-16T06:30:17.034Z,85
2017-05-16T06:31:26.312Z,85
2017-05-16T06:32:35.544Z,85
2017-05-16T06:33:44.450Z,90
2017-05-16T06:34:53.376Z,100
2017-05-16T06:36:03.023Z,105
2017-05-16T06:37:12.333Z,110
2017-05-16T06:38:21.559Z,120
2017-05-16T06:39:31.115Z,135
2017-05-16T06:40:40.334Z,140
2017-05-16T06:41:49.606Z,155
2017-05-16T06:42:58.831Z,170
2017-05-16T06:44:08.052Z,180
2017-05-16T06:45:16.952Z,175
2017-05-16T06:46:26.496Z,175
2017-05-16T06:47:35.543Z,175
2017-05-16T06:48:44.807Z,170
2017-05-16T06:49:54.679Z,180
2017-05-16T06:51:03.600Z,190
2017-05-16T06:52:12.506Z,195
2017-05-16T06:53:21.730Z,190
2017-05-16T06:54:30.954Z,175
2017-05-16T06:55:40.178Z,160
2017-05-16T06:56:49.130Z,150
2017-05-16T06:57:59.337Z,140
2017-05-16T06:59:08.959Z,135
2017-05-16T07:00:18.197Z,140
2017-05-16T07:01:27.423Z,145
2017-05-16T07:02:36.648Z,150
2017-05-16T07:03:45.547Z,155
2017-05-16T07:04:54.881Z,160
2017-05-16T07:06:03.782Z,160
2017-05-16T07:07:13.005Z,170
2017-05-16T07:08:22.234Z,180
2017-05-16T07:09:32.123Z,180
2017-05-16T07:10:41.170Z,185
2017-05-16T07:11:50.087Z,205
2017-05-16T07:12:59.958Z,220
2017-05-16T07:14:08.863Z,225
2017-05-16T07:15:18.089Z,235
2017-05-16T07:16:27.138Z,245
2017-05-16T07:17:36.045Z,250
2017-05-16T07:18:45.596Z,245
2017-05-16T07:19:54.825Z,210
2017-05-16T07:21:04.067Z,190
2017-05-16T07:22:13.356Z,180
2017-05-16T07:23:22.583Z,180
2017-05-16T07:24:32.473Z,180
2017-05-16T07:25:42.352Z,180
2017-05-16T07:26:51.581Z,180
2017-05-16T07:28:01.001Z,185
2017-05-16T07:29:10.226Z,190
2017-05-16T07:30:19.126Z,185
2017-05-16T07:31:28.366Z,150
2017-05-16T07:32:37.591Z,135
2017-05-16T07:33:47.239Z,135
2017-05-16T07:34:56.143Z,140
2017-05-16T07:36:05.365Z,145
2017-05-16T07:37:14.270Z,140
2017-05-16T07:38:23.897Z,130
2017-05-16T07:39:32.950Z,115
2017-05-16T07:40:42.173Z,110
2017-05-16T07:41:51.098Z,105
2017-05-16T07:43:00.328Z,105
2017-05-16T07:44:09.872Z,110
2017-05-16T07:45:19.169Z,115
2017-05-16T07:46:28.063Z,125
2017-05-16T07:47:37.290Z,125
2017-05-16T07:48:46.521Z,115
2017-05-16T07:49:55.745Z,120
2017-05-16T07:51:05.021Z,120
2017-05-16T07:52:13.921Z,125
2017-05-16T07:53:22.831Z,125
2017-05-16T07:54:32.728Z,140
2017-05-16T07:55:41.626Z,140
2017-05-16T07:56:51.151Z,145
2017-05-16T07:58:00.101Z,165
2017-05-16T07:59:09.336Z,180
2017-05-16T08:00:18.913Z,190
2017-05-16T08:01:27.825Z,200
2017-05-16T08:02:37.256Z,185
2017-05-16T08:03:46.481Z,155
2017-05-16T08:04:55.714Z,140
2017-05-16T08:06:04.945Z,150
2017-05-16T08:07:13.840Z,160
2017-05-16T08:08:23.116Z,160
2017-05-16T08:09:32.337Z,145
2017-05-16T08:10:41.887Z,145
2017-05-16T08:11:50.796Z,155
2017-05-16T08:12:59.705Z,180
2017-05-16T08:14:08.755Z,205
2017-05-16T08:15:18.303Z,245
2017-05-16T08:16:27.208Z,300
2017-05-16T08:17:36.442Z,340
2017-05-16T08:18:45.347Z,350
2017-05-16T08:19:54.672Z,360
2017-05-16T08:21:03.894Z,360
2017-05-16T08:22:12.794Z,360
2017-05-16T08:23:21.687Z,370
2017-05-16T08:24:31.238Z,370
2017-05-16T08:25:40.283Z,335
2017-05-16T08:26:49.192Z,290
2017-05-16T08:27:58.417Z,285
2017-05-16T08:29:07.316Z,270
2017-05-16T08:30:16.544Z,260
2017-05-16T08:31:25.838Z,260
2017-05-16T08:32:35.060Z,260
2017-05-16T08:33:43.957Z,265
2017-05-16T08:34:52.858Z,270
2017-05-16T08:36:02.085Z,270
2017-05-16T08:37:11.463Z,270
2017-05-16T08:38:20.368Z,275
2017-05-16T08:39:29.922Z,300
2017-05-16T08:40:39.508Z,320
2017-05-16T08:41:48.782Z,305
2017-05-16T08:42:58.119Z,290
2017-05-16T08:44:07.023Z,270
2017-05-16T08:45:15.926Z,265
2017-05-16T08:46:25.477Z,250
2017-05-16T08:47:34.374Z,240
2017-05-16T08:48:44.348Z,235
2017-05-16T08:49:53.247Z,235
2017-05-16T08:51:02.478Z,225
2017-05-16T08:52:11.701Z,210
2017-05-16T08:53:21.581Z,195
2017-05-16T08:54:30.779Z,195
2017-05-16T08:55:40.005Z,190
2017-05-16T08:56:48.902Z,190
2017-05-16T08:57:58.776Z,190
2017-05-16T08:59:07.675Z,185
2017-05-16T09:00:17.202Z,175
2017-05-16T09:01:26.802Z,180
2017-05-16T09:02:36.359Z,190
2017-05-16T09:03:45.588Z,210
2017-05-16T09:04:54.843Z,190
2017-05-16T09:06:04.377Z,185
2017-05-16T09:07:13.612Z,170
2017-05-16T09:08:22.507Z,145
2017-05-16T09:09:31.730Z,145
2017-05-16T09:10:40.684Z,150
2017-05-16T09:11:50.012Z,155
2017-05-16T09:12:59.885Z,160
2017-05-16T09:14:09.126Z,160
2017-05-16T09:15:18.025Z,155
2017-05-16T09:16:26.925Z,160
2017-05-16T09:17:36.299Z,160
2017-05-16T09:18:45.209Z,170
2017-05-16T09:19:54.759Z,185
2017-05-16T09:21:04.307Z,190
2017-05-16T09:22:13.261Z,195
2017-05-16T09:23:22.632Z,180
2017-05-16T09:24:32.182Z,175
2017-05-16T09:25:41.081Z,170
2017-05-16T09:26:50.307Z,165
2017-05-16T09:27:59.207Z,165
2017-05-16T09:29:08.256Z,175
2017-05-16T09:30:17.156Z,180
2017-05-16T09:31:26.080Z,185
2017-05-16T09:32:35.627Z,190
2017-05-16T09:33:45.173Z,205
2017-05-16T09:34:54.869Z,235
2017-05-16T09:36:04.750Z,240
2017-05-16T09:37:13.980Z,230
2017-05-16T09:38:23.211Z,230
2017-05-16T09:39:32.761Z,215
2017-05-16T09:40:42.507Z,215
2017-05-16T09:41:51.406Z,235
2017-05-16T09:43:00.645Z,250
2017-05-16T09:44:09.552Z,220
2017-05-16T09:45:18.463Z,205
2017-05-16T09:46:27.855Z,240
2017-05-16T09:47:37.731Z,300
2017-05-16T09:48:46.954Z,365
2017-05-16T09:49:56.184Z,370
2017-05-16T09:51:06.053Z,370
2017-05-16T09:52:15.050Z,380
2017-05-16T09:53:23.946Z,390
2017-05-16T09:54:32.848Z,405
2017-05-16T09:55:42.066Z,390
2017-05-16T09:56:50.966Z,360
2017-05-16T09:58:00.616Z,340
2017-05-16T09:59:10.491Z,325
2017-05-16T10:00:19.383Z,315
2017-05-16T10:01:28.278Z,320
2017-05-16T10:02:37.500Z,355
2017-05-16T10:03:46.728Z,400
2017-05-16T10:04:55.628Z,425
2017-05-16T10:06:04.859Z,425
2017-05-16T10:07:14.081Z,405
2017-05-16T10:08:22.982Z,375
2017-05-16T10:09:33.055Z,360
2017-05-16T10:10:41.959Z,350
2017-05-16T10:11:51.840Z,380
2017-05-16T10:13:01.069Z,400
2017-05-16T10:14:09.967Z,370
2017-05-16T10:15:18.921Z,330
2017-05-16T10:16:28.198Z,320
2017-05-16T10:17:37.794Z,335
2017-05-16T10:18:47.344Z,370
2017-05-16T10:19:56.897Z,380
2017-05-16T10:21:05.853Z,330
2017-05-16T10:22:15.078Z,310
2017-05-16T10:23:23.975Z,310
2017-05-16T10:24:33.526Z,315
2017-05-16T10:25:42.481Z,315
2017-05-16T10:26:51.802Z,305
2017-05-16T10:28:01.034Z,310
2017-05-16T10:29:09.932Z,320
2017-05-16T10:30:19.157Z,315
2017-05-16T10:31:28.387Z,315
2017-05-16T10:32:37.761Z,320
2017-05-16T10:33:46.661Z,325
2017-05-16T10:34:56.207Z,340
2017-05-16T10:37:14.024Z,365
2017-05-16T10:38:23.181Z,360
2017-05-16T10:39:32.405Z,395
2017-05-16T10:40:41.625Z,425
2017-05-16T10:41:50.526Z,405
2017-05-16T10:43:00.401Z,405
2017-05-16T10:44:09.509Z,435
2017-05-16T10:45:18.407Z,430
2017-05-16T10:46:27.959Z,390
2017-05-16T10:47:36.855Z,345
2017-05-16T10:48:46.080Z,330
2017-05-16T10:49:55.030Z,330
2017-05-16T10:51:04.907Z,315
2017-05-16T10:52:14.135Z,300
2017-05-16T10:53:23.687Z,305
2017-05-16T10:54:32.914Z,315
2017-05-16T10:55:42.304Z,315
2017-05-16T10:56:51.858Z,310
2017-05-16T10:58:00.758Z,305
2017-05-16T10:59:09.978Z,315
2017-05-16T11:00:18.894Z,345
2017-05-16T11:01:27.941Z,365
2017-05-16T11:02:37.163Z,345
2017-05-16T11:03:47.054Z,315
2017-05-16T11:04:56.278Z,300
2017-05-16T11:06:05.506Z,295
2017-05-16T11:07:15.202Z,310
2017-05-16T11:08:24.144Z,315
2017-05-16T11:09:33.049Z,310
2017-05-16T11:10:42.276Z,305
2017-05-16T11:11:51.496Z,305
2017-05-16T11:13:00.782Z,320
2017-05-16T11:14:10.010Z,325
2017-05-16T11:15:18.915Z,320
2017-05-16T11:16:28.137Z,315
2017-05-16T11:17:37.359Z,300
2017-05-16T11:18:47.063Z,290
2017-05-16T11:19:55.966Z,295
2017-05-16T11:21:04.866Z,300
2017-05-16T11:22:13.807Z,320
2017-05-16T11:23:22.703Z,335
2017-05-16T11:24:31.652Z,360
2017-05-16T11:25:40.553Z,375
2017-05-16T11:26:49.450Z,390
2017-05-16T11:27:59.015Z,410
2017-05-16T11:29:08.576Z,420
2017-05-16T11:30:17.950Z,415
2017-05-16T11:31:26.855Z,415
2017-05-16T11:32:35.754Z,400
2017-05-16T11:33:44.658Z,385
2017-05-16T11:34:53.881Z,385
2017-05-16T11:36:03.084Z,390
2017-05-16T11:37:11.989Z,385
2017-05-16T11:38:21.218Z,380
2017-05-16T11:39:30.446Z,390
2017-05-16T11:40:39.348Z,390
2017-05-16T11:41:49.387Z,360
2017-05-16T11:42:58.612Z,340
2017-05-16T11:44:07.841Z,310
2017-05-16T11:45:17.062Z,280
2017-05-16T11:46:25.965Z,250
2017-05-16T11:47:35.392Z,240
2017-05-16T11:48:44.951Z,240
2017-05-16T11:49:53.871Z,235
2017-05-16T11:51:02.769Z,235
2017-05-16T11:52:11.996Z,230
2017-05-16T11:53:21.371Z,235
2017-05-16T11:54:30.601Z,240
2017-05-16T11:55:39.825Z,245
2017-05-16T11:56:49.107Z,245
2017-05-16T11:57:58.336Z,255
2017-05-16T11:59:07.910Z,250
2017-05-16T12:00:16.808Z,240
2017-05-16T12:01:25.704Z,245
2017-05-16T12:02:34.610Z,270
2017-05-16T12:03:44.160Z,280
2017-05-16T12:04:53.362Z,275
2017-05-16T12:06:02.590Z,260
2017-05-16T12:07:11.499Z,250
2017-05-16T12:08:20.724Z,245
2017-05-16T12:09:29.955Z,255
2017-05-16T12:10:38.904Z,260
2017-05-16T12:11:48.130Z,260
2017-05-16T12:12:57.355Z,270
2017-05-16T12:14:06.908Z,275
2017-05-16T12:15:15.811Z,265
2017-05-16T12:16:25.016Z,265
2017-05-16T12:17:33.916Z,285
2017-05-16T12:18:43.144Z,300
2017-05-16T12:19:52.047Z,300
2017-05-16T12:21:01.268Z,285
2017-05-16T12:22:10.163Z,290
2017-05-16T12:23:19.391Z,275
2017-05-16T12:24:28.292Z,270
2017-05-16T12:25:37.191Z,265
2017-05-16T12:26:46.088Z,280
2017-05-16T12:27:55.133Z,275
2017-05-16T12:29:04.367Z,255
2017-05-16T12:30:13.919Z,225
2017-05-16T12:31:23.159Z,210
2017-05-16T12:32:32.062Z,205
2017-05-16T12:33:41.347Z,225
2017-05-16T12:34:50.241Z,250
2017-05-16T12:35:59.196Z,260
2017-05-16T12:37:08.420Z,255
2017-05-16T12:38:17.645Z,270
2017-05-16T12:39:27.023Z,280
2017-05-16T12:40:36.248Z,270
2017-05-16T12:41:45.151Z,265
2017-05-16T12:42:54.699Z,280
2017-05-16T12:44:03.599Z,295
2017-05-16T12:45:12.975Z,320
2017-05-16T12:46:21.879Z,320
2017-05-16T12:47:30.774Z,315
2017-05-16T12:48:39.999Z,320
2017-05-16T12:49:49.233Z,310
2017-05-16T12:50:58.183Z,295
2017-05-16T12:52:07.734Z,305
2017-05-16T12:53:16.635Z,285
2017-05-16T12:54:26.186Z,275
2017-05-16T12:55:35.087Z,275
2017-05-16T12:56:44.284Z,275
2017-05-16T12:57:53.183Z,280
2017-05-16T12:59:02.084Z,300
2017-05-16T13:00:10.983Z,315
2017-05-16T13:01:20.537Z,340
2017-05-16T13:02:29.486Z,340
2017-05-16T13:03:38.716Z,330
2017-05-16T13:04:47.941Z,320
2017-05-16T13:05:57.167Z,310
2017-05-16T13:07:06.126Z,305
2017-05-16T13:08:15.125Z,310
2017-05-16T13:09:24.025Z,310
2017-05-16T13:10:33.251Z,320
2017-05-16T13:11:42.802Z,330
2017-05-16T13:12:52.029Z,325
2017-05-16T13:14:01.305Z,330
2017-05-16T13:15:10.212Z,330
2017-05-16T13:16:19.470Z,330
2017-05-16T13:17:28.693Z,330
2017-05-16T13:18:37.593Z,325
2017-05-16T13:19:46.869Z,325
2017-05-16T13:20:56.099Z,330
2017-05-16T13:22:05.334Z,360
2017-05-16T13:23:14.233Z,405
2017-05-16T13:24:23.134Z,475
2017-05-16T13:25:32.188Z,520
2017-05-16T13:26:41.735Z,520
2017-05-16T13:27:50.962Z,450
2017-05-16T13:29:00.192Z,410
2017-05-16T13:30:09.422Z,390
2017-05-16T13:31:18.478Z,380
2017-05-16T13:32:27.373Z,365
2017-05-16T13:33:36.275Z,370
2017-05-16T13:34:45.169Z,375
2017-05-16T13:35:55.177Z,370
2017-05-16T13:37:04.958Z,375
2017-05-16T13:38:14.078Z,380
2017-05-16T13:39:24.230Z,365
2017-05-16T13:40:34.153Z,350
2017-05-16T13:41:44.271Z,345
2017-05-16T13:42:55.367Z,350
2017-05-16T13:44:04.750Z,365
2017-05-16T13:45:14.450Z,380
2017-05-16T13:46:23.354Z,380
2017-05-16T13:47:34.446Z,370
2017-05-16T13:48:43.758Z,360
2017-05-16T13:49:53.741Z,380
2017-05-16T13:51:04.177Z,385
2017-05-16T13:52:14.219Z,405
2017-05-16T13:53:23.762Z,410
2017-05-16T13:54:34.163Z,410
2017-05-16T13:55:45.541Z,410
2017-05-16T13:56:54.445Z,410
2017-05-16T13:58:04.133Z,405
2017-05-16T13:59:14.231Z,395
2017-05-16T14:00:24.658Z,395
2017-05-16T14:01:34.293Z,420
2017-05-16T14:02:44.177Z,470
2017-05-16T14:03:53.569Z,525
2017-05-16T14:05:03.709Z,555
2017-05-16T14:06:13.556Z,530
2017-05-16T14:07:23.959Z,465
2017-05-16T14:08:33.199Z,420
2017-05-16T14:09:42.311Z,410
2017-05-16T14:10:52.531Z,420
2017-05-16T14:12:03.918Z,425
2017-05-16T14:13:13.199Z,430
2017-05-16T14:14:22.588Z,435
2017-05-16T14:15:31.839Z,455
2017-05-16T14:16:42.214Z,480
2017-05-16T14:17:51.117Z,505
2017-05-16T14:19:00.395Z,520
2017-05-16T14:20:10.859Z,525
2017-05-16T14:21:21.343Z,515
2017-05-16T14:22:30.960Z,480
2017-05-16T14:23:41.605Z,440
2017-05-16T14:24:51.695Z,410
2017-05-16T14:26:01.594Z,400
2017-05-16T14:27:11.534Z,375
2017-05-16T14:28:22.175Z,360
2017-05-16T14:29:31.409Z,335
2017-05-16T14:30:41.885Z,315
2017-05-16T14:31:52.237Z,305
2017-05-16T14:33:01.981Z,280
2017-05-16T14:34:12.434Z,260
2017-05-16T14:35:22.380Z,250
2017-05-16T14:36:32.295Z,245
2017-05-16T14:37:43.507Z,240
2017-05-16T14:38:53.995Z,240
2017-05-16T14:40:04.639Z,240
2017-05-16T14:41:15.108Z,245
2017-05-16T14:42:24.336Z,250
2017-05-16T14:43:33.543Z,255
2017-05-16T14:44:42.788Z,250
2017-05-16T14:45:51.704Z,240
2017-05-16T14:47:00.953Z,240
2017-05-16T14:48:09.858Z,240
2017-05-16T14:49:19.440Z,240
2017-05-16T14:50:29.862Z,235
2017-05-16T14:51:39.539Z,225
2017-05-16T14:52:49.522Z,225
2017-05-16T14:53:59.056Z,250
2017-05-16T14:55:09.587Z,265
2017-05-16T14:56:19.218Z,270
2017-05-16T14:57:30.168Z,275
2017-05-16T14:58:41.195Z,270
2017-05-16T14:59:51.371Z,275
2017-05-16T15:01:00.508Z,280
2017-05-16T15:02:09.744Z,285
2017-05-16T15:03:18.654Z,285
2017-05-16T15:04:27.889Z,280
2017-05-16T15:05:36.791Z,280
2017-05-16T15:06:45.850Z,275
2017-05-16T15:07:54.753Z,270
2017-05-16T15:09:04.627Z,265
2017-05-16T15:10:15.041Z,255
2017-05-16T15:11:24.876Z,245
2017-05-16T15:12:34.342Z,230
2017-05-16T15:13:44.663Z,215
2017-05-16T15:14:54.389Z,210
2017-05-16T15:16:04.707Z,195
2017-05-16T15:17:13.983Z,205
2017-05-16T15:18:23.976Z,210
2017-05-16T15:19:33.339Z,225
2017-05-16T15:20:42.565Z,235
2017-05-16T15:21:51.776Z,245
2017-05-16T15:23:01.597Z,255
2017-05-16T15:24:13.744Z,270
2017-05-16T15:25:23.291Z,290
2017-05-16T15:26:33.288Z,320
2017-05-16T15:27:43.587Z,340
2017-05-16T15:28:54.642Z,355
2017-05-16T15:30:04.851Z,370
2017-05-16T15:31:14.141Z,385
2017-05-16T15:32:23.048Z,410
2017-05-16T15:33:31.956Z,435
2017-05-16T15:34:40.861Z,460
2017-05-16T15:35:50.094Z,470
2017-05-16T15:36:58.996Z,470
2017-05-16T15:38:08.228Z,455
2017-05-16T15:39:17.128Z,440
2017-05-16T15:40:26.356Z,430
2017-05-16T15:41:35.264Z,415
2017-05-16T15:42:44.162Z,405
2017-05-16T15:43:53.388Z,410
2017-05-16T15:45:02.616Z,420
2017-05-16T15:46:11.516Z,445
2017-05-16T15:47:20.852Z,480
2017-05-16T15:48:30.416Z,540
2017-05-16T15:49:39.327Z,590
2017-05-16T15:50:48.229Z,665
2017-05-16T15:51:57.455Z,745
2017-05-16T15:53:06.835Z,845
2017-05-16T15:54:15.737Z,890
2017-05-16T15:55:24.646Z,875
2017-05-16T15:56:33.556Z,730
2017-05-16T15:57:42.459Z,650
2017-05-16T15:58:51.520Z,600
2017-05-16T16:00:00.423Z,575
2017-05-16T16:01:09.706Z,580
2017-05-16T16:02:19.584Z,590
2017-05-16T16:03:28.488Z,640
2017-05-16T16:04:37.492Z,625
2017-05-16T16:05:46.393Z,540
2017-05-16T16:06:55.625Z,515
2017-05-16T16:08:04.531Z,505
2017-05-16T16:09:13.437Z,510
2017-05-16T16:10:22.493Z,540
2017-05-16T16:11:31.394Z,570
2017-05-16T16:12:40.625Z,615
2017-05-16T16:13:49.530Z,775
2017-05-16T16:14:59.096Z,1255
2017-05-16T16:16:08.626Z,1190